createdAt,value
2019-01-14T17:37:48.284Z,3.40
2019-01-14T17:40:20.776Z,3.60
2019-01-14T17:42:50.768Z,3.60
2019-01-14T17:45:20.769Z,3.60
2019-01-14T17:47:50.767Z,3.60
2019-01-14T17:50:20.789Z,3.60
2019-01-14T17:52:50.787Z,3.50
2019-01-14T17:55:20.713Z,3.60
2019-01-14T17:57:50.690Z,3.70
2019-01-14T18:00:23.103Z,3.70
2019-01-14T18:02:54.484Z,3.80
2019-01-14T18:05:24.523Z,3.70
2019-01-14T18:07:54.645Z,3.70
2019-01-14T18:10:24.720Z,3.80
2019-01-14T18:12:55.322Z,3.70
2019-01-14T18:15:25.303Z,3.80
2019-01-14T18:17:55.217Z,3.80
2019-01-14T18:20:25.396Z,3.80
2019-01-14T18:22:55.373Z,3.70
2019-01-14T18:25:25.352Z,3.60
2019-01-14T18:27:56.406Z,3.50
2019-01-14T18:30:26.349Z,3.40
2019-01-14T18:32:56.248Z,3.30
2019-01-14T18:35:26.205Z,3.30
2019-01-14T18:37:56.120Z,3.10
2019-01-14T18:40:26.118Z,3.10
2019-01-14T18:42:57.637Z,3.10
2019-01-14T18:45:27.616Z,3.20
2019-01-14T18:47:58.833Z,3.20
2019-01-14T18:50:29.021Z,3.20
2019-01-14T18:52:59.036Z,3.40
2019-01-14T18:55:29.231Z,3.40
2019-01-14T18:57:59.204Z,3.30
2019-01-14T19:00:29.184Z,3.30
2019-01-14T19:02:59.194Z,3.30
2019-01-14T19:05:29.229Z,3.50
2019-01-14T19:07:59.151Z,3.50
2019-01-14T19:10:29.135Z,3.50
2019-01-14T19:12:59.123Z,3.70
2019-01-14T19:15:29.109Z,3.60
2019-01-14T19:17:59.202Z,3.60
2019-01-14T19:20:29.221Z,3.50
2019-01-14T19:22:59.293Z,3.30
2019-01-14T19:25:29.216Z,3.30
2019-01-14T19:27:59.230Z,3.40
2019-01-14T19:30:29.315Z,3.30
2019-01-14T19:32:59.297Z,3.40
2019-01-14T19:35:29.232Z,3.40
2019-01-14T19:37:59.318Z,3.30
2019-01-14T19:40:29.295Z,3.30
2019-01-14T19:42:59.209Z,3.30
2019-01-14T19:45:29.195Z,3.10
2019-01-14T19:47:59.106Z,3.10
2019-01-14T19:50:29.195Z,3.00
2019-01-14T19:52:59.224Z,2.80
2019-01-14T19:55:29.891Z,2.70
2019-01-14T19:57:59.894Z,2.60
2019-01-14T20:00:30.313Z,2.60
2019-01-14T20:03:00.502Z,2.70
2019-01-14T20:05:30.647Z,2.60
2019-01-14T20:08:00.971Z,2.50
2019-01-14T20:10:30.995Z,2.40
2019-01-14T20:13:00.983Z,2.40
2019-01-14T20:15:30.974Z,2.40
2019-01-14T20:18:00.915Z,2.30
2019-01-14T20:20:30.989Z,2.30
2019-01-14T20:23:02.583Z,2.30
2019-01-14T20:25:32.574Z,2.40
2019-01-14T20:28:02.512Z,2.30
2019-01-14T20:30:32.617Z,2.30
2019-01-14T20:33:02.634Z,2.40
2019-01-14T20:35:32.720Z,2.20
2019-01-14T20:38:21.927Z,2.10
2019-01-14T20:40:52.096Z,2.10
2019-01-14T20:43:22.010Z,2.00
2019-01-14T20:45:52.083Z,2.00
2019-01-14T20:48:22.070Z,2.00
2019-01-14T20:50:51.998Z,2.00
2019-01-14T20:53:21.973Z,2.00
2019-01-14T20:55:51.981Z,2.00
2019-01-14T20:58:21.977Z,2.00
2019-01-14T21:00:51.894Z,2.00
2019-01-14T21:03:21.865Z,2.00
2019-01-14T21:05:51.949Z,2.10
2019-01-14T21:08:21.870Z,2.10
2019-01-14T21:10:51.999Z,2.20
2019-01-14T21:13:21.998Z,2.10
2019-01-14T21:15:51.979Z,2.10
2019-01-14T21:18:21.957Z,2.10
2019-01-14T21:20:51.890Z,2.00
2019-01-14T21:23:23.112Z,2.00
2019-01-14T21:25:53.130Z,2.00
2019-01-14T21:28:23.108Z,2.00
2019-01-14T21:30:53.043Z,2.00
2019-01-14T21:33:29.818Z,1.90
2019-01-14T21:35:59.829Z,1.80
2019-01-14T21:38:29.813Z,1.80
2019-01-14T21:41:00.424Z,1.90
2019-01-14T21:43:30.438Z,2.00
2019-01-14T21:46:00.429Z,2.00
2019-01-14T21:48:30.362Z,1.90
2019-01-14T21:51:00.378Z,1.80
2019-01-14T21:53:30.454Z,1.80
2019-01-14T21:56:00.385Z,1.60
2019-01-14T21:58:30.366Z,1.70
2019-01-14T22:01:00.284Z,1.70
2019-01-14T22:03:30.268Z,1.60
2019-01-14T22:06:02.265Z,1.60
2019-01-14T22:08:32.499Z,1.60
2019-01-14T22:11:02.591Z,1.50
2019-01-14T22:13:32.574Z,1.60
2019-01-14T22:16:02.685Z,1.60
2019-01-14T22:18:32.717Z,1.60
2019-01-14T22:21:02.809Z,1.50
2019-01-14T22:23:32.926Z,1.60
2019-01-14T22:26:02.927Z,1.50
2019-01-14T22:28:32.897Z,1.40
2019-01-14T22:31:02.961Z,1.40
2019-01-14T22:33:32.874Z,1.50
2019-01-14T22:36:02.992Z,1.50
2019-01-14T22:38:33.047Z,1.50
2019-01-14T22:41:03.246Z,1.50
2019-01-14T22:43:33.268Z,1.60
2019-01-14T22:46:03.308Z,1.60
2019-01-14T22:48:33.284Z,1.70
2019-01-14T22:51:27.720Z,1.90
2019-01-14T22:53:57.800Z,1.70
2019-01-14T22:56:27.710Z,1.70
2019-01-14T22:58:57.689Z,1.70
2019-01-14T23:01:29.391Z,1.60
2019-01-14T23:04:00.747Z,1.60
2019-01-14T23:06:30.667Z,1.60
2019-01-14T23:09:00.681Z,1.60
2019-01-14T23:11:30.601Z,1.50
2019-01-14T23:14:00.595Z,1.40
2019-01-14T23:16:31.671Z,1.50
2019-01-14T23:19:01.573Z,1.50
2019-01-14T23:21:31.540Z,1.60
2019-01-14T23:24:01.512Z,1.80
2019-01-14T23:26:32.539Z,1.90
2019-01-14T23:29:02.455Z,1.90
2019-01-14T23:31:33.749Z,1.90
2019-01-14T23:34:03.664Z,2.00
2019-01-14T23:36:33.636Z,2.10
2019-01-14T23:39:06.587Z,2.00
2019-01-14T23:41:36.759Z,2.00
2019-01-14T23:44:06.941Z,2.10
2019-01-14T23:46:36.873Z,2.10
2019-01-14T23:49:07.056Z,2.00
2019-01-14T23:51:38.265Z,2.00
2019-01-14T23:54:08.259Z,2.00
2019-01-14T23:56:38.203Z,2.10
2019-01-14T23:59:08.306Z,2.10
